Ana Sayfa
METAR-TAF:

METAR-TAF

Havaalanları :

Şirak Havalimanı

Gümrü, Ermenistan

Enlem: 40-45-01N, Boylam: 043-51-33E, yükseklik: 1524 m

Güncel hava durumu gözlemi

Rapor saat 20:00 UTC de 39 dakika önce yapıldı.
Rüzgar doğu/kuzeydoğudan 4 kt
Sıcaklık 14°C
Nem 55%
Basınç 1021 hPa
Görüş mesafesi 10 km veya daha fazla
4600 ft yükseklikte parçalı çok bulutlu

METAR: UDSG 232000Z 07004KT 9999 BKN046 14/05 Q1021 R02/CLRD70 NOSIG

Saat: 00:39 (20:39 UTC)

Tahmin

Rapor saat 17:07 UTC de 3 saat ve 32 dakika önce yapıldı.
Ayın 23'si saat 18 UTC'den ayın 24'si saat 18 UTC'ye kadar geçerli Tahmin
Rüzgar doğu/kuzeydoğudan 8 kt
Görüş mesafesi 10 km veya daha fazla
4000 ft yükseklikte parçalı bulutlu
Geçici
ayın 23'si saat 18 UTC'den ayın 23'si saat 21 UTC'ye kadar
Rüzgar değişken yönden 20 kt
3000 ft yükseklikte parçalı çok bulutlu, Kümülonimbus.
gök gürültülü fırtına, hafif yağmur

TAF: UDSG 231707Z 2318/2418 06008KT 9999 SCT040 TEMPO 2318/2321 VRB20KT -TSRA BKN030CB

4.000'den fazla havaalanı için hava durumu gözlemleri ve tahminleri (METAR ve TAF raporları).

Kullanılabilir istasyonlar harita üzerinde sarı ve kırmızı noktalarla gösterilir.

İstasyonun adını görmek için fareyi noktanın üzerinde gezdirin.

Sonrasında hava gözlem ve tahminlerini görmek için tıklayın.

Haritayı değiştirmek için: yaklaştırmak için siyah artı işaretli yeşil düğmeye ve uzaklaştırmak için de eksi işaretli düğmeye hızla tıklayın; bitişik haritalar için yeşil okları kullanın.


METAR-TAF: